Time;durP1;ratioP1;P1;durP2;ratioP2;P2;SDS_P1;SDS_P2;PMS_P1;PMS_P2;Temp;Humidity;BMP_temperature;BMP_pressure;BME280_temperature;BME280_humidity;BME280_pressure;Samples;Min_cycle;Max_cycle;Signal;HPM_P1;HPM_P2
2022/07/04 00:00:23;;;;;;;13.55;5.80;;;14.10;99.90;;;;;;5083540;28;20048;-77
2022/07/04 00:02:52;;;;;;;10.95;6.25;;;14.10;99.90;;;;;;5083193;28;20053;-78
2022/07/04 00:05:18;;;;;;;12.88;6.20;;;14.10;99.90;;;;;;5081198;28;20078;-77
2022/07/04 00:07:48;;;;;;;10.45;5.97;;;14.10;99.90;;;;;;5079525;28;20045;-78
2022/07/04 00:10:20;;;;;;;16.02;7.03;;;14.10;99.90;;;;;;5083102;28;20040;-77
2022/07/04 00:12:46;;;;;;;15.38;6.25;;;14.00;99.90;;;;;;5082003;28;20479;-78
2022/07/04 00:15:14;;;;;;;12.90;6.57;;;14.10;99.90;;;;;;5081417;28;20041;-78
2022/07/04 00:17:40;;;;;;;12.50;6.38;;;14.10;99.90;;;;;;5082466;28;20475;-78
2022/07/04 00:20:08;;;;;;;13.38;6.90;;;14.00;99.90;;;;;;5080629;28;20060;-77
2022/07/04 00:22:34;;;;;;;14.82;5.88;;;14.00;99.90;;;;;;5081700;28;20076;-77
2022/07/04 00:24:59;;;;;;;12.63;6.57;;;14.00;99.90;;;;;;5080525;28;20037;-77
2022/07/04 00:27:25;;;;;;;11.20;6.00;;;14.00;99.90;;;;;;5077891;28;20036;-77
2022/07/04 00:29:51;;;;;;;12.80;6.47;;;14.00;99.90;;;;;;5094187;28;20045;-77
2022/07/04 00:32:17;;;;;;;15.10;6.22;;;14.00;99.90;;;;;;5078301;28;20052;-77
2022/07/04 00:34:42;;;;;;;11.27;5.55;;;14.00;99.90;;;;;;5076983;28;20041;-77
2022/07/04 00:37:08;;;;;;;12.73;6.07;;;14.00;99.90;;;;;;5079383;28;20056;-78
2022/07/04 00:39:34;;;;;;;11.13;5.95;;;14.00;99.90;;;;;;5078047;28;20437;-78
2022/07/04 00:42:01;;;;;;;13.25;6.60;;;14.00;99.90;;;;;;5094004;28;20056;-77
2022/07/04 00:44:27;;;;;;;13.45;7.15;;;14.00;99.90;;;;;;5081382;28;20079;-78
2022/07/04 00:46:52;;;;;;;16.73;7.25;;;13.90;99.90;;;;;;5081262;28;20379;-77
2022/07/04 00:49:18;;;;;;;13.23;6.80;;;13.90;99.90;;;;;;5080070;28;20052;-78
2022/07/04 00:51:45;;;;;;;15.98;7.97;;;13.90;99.90;;;;;;5080802;28;20109;-78
2022/07/04 00:54:15;;;;;;;11.45;6.22;;;13.90;99.90;;;;;;5081713;28;20121;-78
2022/07/04 00:56:43;;;;;;;14.38;7.60;;;13.90;99.90;;;;;;5080831;28;20051;-77
2022/07/04 00:59:11;;;;;;;16.30;7.20;;;13.90;99.90;;;;;;5080078;28;20047;-77
2022/07/04 01:01:37;;;;;;;16.15;7.80;;;13.90;99.90;;;;;;5081142;28;20036;-77
2022/07/04 01:04:04;;;;;;;17.15;8.73;;;13.90;99.90;;;;;;5080210;28;20041;-77
2022/07/04 01:06:30;;;;;;;14.13;8.27;;;13.90;99.90;;;;;;5081125;28;20044;-78
2022/07/04 01:08:56;;;;;;;15.70;8.38;;;13.90;99.90;;;;;;5082451;28;20124;-77
2022/07/04 01:11:22;;;;;;;18.30;8.63;;;13.90;99.90;;;;;;5081630;28;20033;-77
2022/07/04 01:13:49;;;;;;;19.20;8.57;;;13.90;99.90;;;;;;5080332;28;20048;-78
2022/07/04 01:16:15;;;;;;;16.13;7.90;;;13.90;99.90;;;;;;5080433;28;20063;-77
2022/07/04 01:18:41;;;;;;;16.95;8.98;;;13.90;99.90;;;;;;5079109;28;20041;-78
2022/07/04 01:21:07;;;;;;;16.63;8.95;;;13.80;99.90;;;;;;5079382;28;20036;-77
2022/07/04 01:23:38;;;;;;;18.25;9.25;;;13.90;99.90;;;;;;5077448;28;20558;-77
2022/07/04 01:26:04;;;;;;;16.63;8.98;;;13.90;99.90;;;;;;5080147;28;20044;-77
2022/07/04 01:28:30;;;;;;;16.05;9.50;;;13.80;99.90;;;;;;5079177;28;20056;-77
2022/07/04 01:30:55;;;;;;;15.52;9.45;;;13.80;99.90;;;;;;5079716;28;20040;-77
2022/07/04 01:33:21;;;;;;;16.85;9.73;;;13.90;99.90;;;;;;5080592;28;20020;-78
2022/07/04 01:35:47;;;;;;;17.23;9.10;;;13.80;99.90;;;;;;5078123;28;20036;-77
2022/07/04 01:38:13;;;;;;;18.80;9.80;;;13.80;99.90;;;;;;5095789;28;20119;-77
2022/07/04 01:40:39;;;;;;;22.30;10.25;;;13.80;99.90;;;;;;5078181;28;20079;-78
2022/07/04 01:43:05;;;;;;;17.88;9.65;;;13.80;99.90;;;;;;5080576;28;20063;-77
2022/07/04 01:45:34;;;;;;;19.75;9.45;;;13.90;99.90;;;;;;5078126;28;20131;-77
2022/07/04 01:48:01;;;;;;;18.45;10.82;;;13.80;99.90;;;;;;5080097;28;20056;-77
2022/07/04 01:50:27;;;;;;;16.80;9.90;;;13.80;99.90;;;;;;5080953;28;20131;-78
2022/07/04 01:52:53;;;;;;;18.75;9.88;;;13.80;99.90;;;;;;5081278;28;20075;-77
2022/07/04 01:55:18;;;;;;;18.55;9.95;;;13.80;99.90;;;;;;5081767;28;20136;-78
2022/07/04 01:57:44;;;;;;;22.92;10.70;;;13.70;99.90;;;;;;5080530;28;20033;-77
2022/07/04 02:02:55;;;;;;;21.45;11.18;;;13.80;99.90;;;;;;5080196;28;20048;-77
2022/07/04 02:05:22;;;;;;;21.02;10.15;;;13.80;99.90;;;;;;5078677;28;20032;-78
2022/07/04 02:07:48;;;;;;;22.20;10.88;;;13.80;99.90;;;;;;5083247;28;20036;-78
2022/07/04 02:10:15;;;;;;;18.48;11.00;;;13.70;99.90;;;;;;5081416;28;20040;-78
2022/07/04 02:15:26;;;;;;;21.65;11.15;;;13.70;99.90;;;;;;5083146;28;20506;-77
2022/07/04 02:17:51;;;;;;;31.27;11.82;;;13.70;99.90;;;;;;5081326;28;20041;-78
2022/07/04 02:20:17;;;;;;;21.65;11.13;;;13.70;99.90;;;;;;5078129;28;20055;-77
2022/07/04 02:22:43;;;;;;;20.92;12.23;;;13.80;99.90;;;;;;5074695;28;20436;-77
2022/07/04 02:25:11;;;;;;;26.42;12.27;;;13.80;99.90;;;;;;5078827;28;20117;-77
2022/07/04 02:27:45;;;;;;;20.90;12.27;;;13.70;99.90;;;;;;5078056;28;20031;-77
2022/07/04 02:30:11;;;;;;;20.15;11.05;;;13.70;99.90;;;;;;5095136;28;20503;-77
2022/07/04 02:32:37;;;;;;;20.88;12.38;;;13.70;99.90;;;;;;5080692;28;20403;-77
2022/07/04 02:35:04;;;;;;;20.95;10.63;;;13.70;99.90;;;;;;5079149;28;20063;-77
2022/07/04 02:37:29;;;;;;;18.30;11.25;;;13.70;99.90;;;;;;5093167;28;20108;-77
2022/07/04 02:39:55;;;;;;;23.42;10.52;;;13.70;99.90;;;;;;5078418;28;20123;-77
2022/07/04 02:42:21;;;;;;;20.98;10.23;;;13.70;99.90;;;;;;5097598;28;20051;-77
2022/07/04 02:44:47;;;;;;;23.63;11.05;;;13.70;99.90;;;;;;5080861;28;20491;-77
2022/07/04 02:47:13;;;;;;;24.45;11.70;;;13.70;99.90;;;;;;5080708;28;20105;-77
2022/07/04 02:49:39;;;;;;;18.45;10.80;;;13.70;99.90;;;;;;5080546;28;20071;-77
2022/07/04 02:52:05;;;;;;;21.25;11.95;;;13.70;99.90;;;;;;5080820;28;20037;-77
2022/07/04 02:54:31;;;;;;;26.42;12.63;;;13.70;99.90;;;;;;5079987;28;20044;-78
2022/07/04 02:56:57;;;;;;;28.52;12.73;;;13.70;99.90;;;;;;5080778;28;20064;-77
2022/07/04 02:59:22;;;;;;;25.80;12.35;;;13.70;99.90;;;;;;5082367;28;20391;-77
2022/07/04 03:01:48;;;;;;;23.70;12.77;;;13.70;99.90;;;;;;5081768;28;20044;-77
2022/07/04 03:04:14;;;;;;;28.25;12.98;;;13.70;99.90;;;;;;5078129;28;20045;-77
2022/07/04 03:06:39;;;;;;;22.05;13.32;;;13.70;99.90;;;;;;5092111;28;20064;-77
2022/07/04 03:09:06;;;;;;;27.60;12.70;;;13.70;99.90;;;;;;5075739;28;20048;-77
2022/07/04 03:11:31;;;;;;;24.70;12.65;;;13.70;99.90;;;;;;5074883;28;20056;-78
2022/07/04 03:13:57;;;;;;;25.23;12.35;;;13.70;99.90;;;;;;5092490;28;20044;-78
2022/07/04 03:16:23;;;;;;;19.88;11.43;;;13.70;99.90;;;;;;5077019;28;20045;-77
2022/07/04 03:18:48;;;;;;;23.98;12.98;;;13.70;99.90;;;;;;5076849;28;20052;-78
2022/07/04 03:21:14;;;;;;;22.60;12.18;;;13.80;99.90;;;;;;5076654;28;20097;-78
2022/07/04 03:23:40;;;;;;;24.73;13.18;;;13.70;99.90;;;;;;5076742;28;20090;-78
2022/07/04 03:26:05;;;;;;;24.73;12.88;;;13.80;99.90;;;;;;5076604;28;20049;-78
2022/07/04 03:28:31;;;;;;;22.20;12.27;;;13.70;99.90;;;;;;5076729;28;20036;-78
2022/07/04 03:30:58;;;;;;;25.98;13.05;;;13.80;99.90;;;;;;5076788;28;20387;-78
2022/07/04 03:33:23;;;;;;;22.70;12.05;;;13.80;99.90;;;;;;5076743;28;20070;-78
2022/07/04 03:35:49;;;;;;;25.17;12.85;;;13.80;99.90;;;;;;5076350;28;20458;-78
2022/07/04 03:38:14;;;;;;;28.73;13.88;;;13.80;99.90;;;;;;5092007;28;20040;-78
2022/07/04 03:40:40;;;;;;;24.08;12.70;;;13.80;99.90;;;;;;5076318;28;20047;-78
2022/07/04 03:43:06;;;;;;;24.60;12.25;;;13.80;99.90;;;;;;5076576;28;20043;-78
2022/07/04 03:45:32;;;;;;;30.15;13.85;;;13.90;99.90;;;;;;5076535;28;20048;-78
2022/07/04 03:47:58;;;;;;;23.35;12.27;;;13.90;99.90;;;;;;5076482;28;20041;-78
2022/07/04 03:50:24;;;;;;;21.60;12.25;;;13.90;99.90;;;;;;5076393;28;20123;-78
2022/07/04 03:52:50;;;;;;;26.20;12.40;;;13.90;99.90;;;;;;5074929;28;20041;-78
2022/07/04 03:55:16;;;;;;;27.33;12.80;;;13.90;99.90;;;;;;5076166;28;20036;-78
2022/07/04 03:57:42;;;;;;;22.20;12.20;;;13.90;99.90;;;;;;5076343;28;20051;-77
2022/07/04 04:00:09;;;;;;;23.92;12.65;;;13.90;99.90;;;;;;5076206;28;20037;-78
2022/07/04 04:02:36;;;;;;;25.20;11.95;;;14.00;99.90;;;;;;5076129;28;20124;-78
2022/07/04 04:07:46;;;;;;;25.77;12.20;;;14.00;99.90;;;;;;5075550;28;20491;-78
2022/07/04 04:10:12;;;;;;;26.98;11.93;;;14.00;99.90;;;;;;5075594;28;20047;-77
2022/07/04 04:12:37;;;;;;;25.92;11.82;;;14.10;99.90;;;;;;5091399;28;20041;-77
2022/07/04 04:15:04;;;;;;;26.73;12.57;;;14.20;99.90;;;;;;5075788;28;20102;-77
2022/07/04 04:17:29;;;;;;;21.15;10.82;;;14.30;99.90;;;;;;5075916;28;20051;-78
2022/07/04 04:19:55;;;;;;;20.65;10.60;;;14.30;99.90;;;;;;5075328;28;20045;-78
2022/07/04 04:22:21;;;;;;;23.83;11.18;;;14.40;99.90;;;;;;5074264;28;20453;-77
2022/07/04 04:24:46;;;;;;;24.92;11.05;;;14.50;99.90;;;;;;5075420;28;20044;-77
2022/07/04 04:27:12;;;;;;;20.23;11.02;;;14.60;99.90;;;;;;5075427;28;20067;-77
2022/07/04 04:29:38;;;;;;;22.40;10.57;;;14.70;99.90;;;;;;5075705;28;20082;-78
2022/07/04 04:32:04;;;;;;;23.48;11.20;;;14.80;99.90;;;;;;5075694;28;20088;-77
2022/07/04 04:34:30;;;;;;;23.30;10.38;;;14.80;99.90;;;;;;5075531;28;20048;-77
2022/07/04 04:36:55;;;;;;;21.13;11.20;;;14.90;99.90;;;;;;5075572;28;20131;-78
2022/07/04 04:39:21;;;;;;;26.45;10.95;;;15.00;99.90;;;;;;5074123;28;20098;-78
2022/07/04 04:41:46;;;;;;;18.00;10.15;;;15.00;99.90;;;;;;5075437;28;20497;-77
2022/07/04 04:44:12;;;;;;;18.05;9.70;;;15.10;99.90;;;;;;5075408;28;20123;-77
2022/07/04 04:46:38;;;;;;;27.92;11.18;;;15.10;99.90;;;;;;5075224;28;20119;-78
2022/07/04 04:49:03;;;;;;;17.58;9.95;;;15.10;99.90;;;;;;5075088;28;20482;-77
2022/07/04 04:51:29;;;;;;;21.20;9.50;;;15.20;99.90;;;;;;5075262;28;20051;-77
2022/07/04 04:53:54;;;;;;;21.75;10.02;;;15.20;99.90;;;;;;5075247;28;20407;-77
2022/07/04 04:56:21;;;;;;;16.38;8.40;;;15.30;99.90;;;;;;5074948;28;20040;-78
2022/07/04 04:58:46;;;;;;;24.48;9.05;;;15.30;99.90;;;;;;5075397;28;20036;-78
2022/07/04 05:01:12;;;;;;;16.52;8.50;;;15.30;99.90;;;;;;5074914;28;20370;-78
2022/07/04 05:03:38;;;;;;;18.77;8.95;;;15.40;99.90;;;;;;5074747;28;20044;-77
2022/07/04 05:06:04;;;;;;;20.23;8.63;;;15.50;99.90;;;;;;5090235;28;20048;-77
2022/07/04 05:08:29;;;;;;;20.20;9.07;;;15.70;99.90;;;;;;5074655;28;20525;-78
2022/07/04 05:10:55;;;;;;;21.33;8.75;;;15.70;99.90;;;;;;5074859;28;20048;-78
2022/07/04 05:13:21;;;;;;;22.70;9.02;;;15.80;99.90;;;;;;5090204;28;20068;-78
2022/07/04 05:15:46;;;;;;;17.88;7.60;;;15.90;99.90;;;;;;5073533;28;20048;-77
2022/07/04 05:18:13;;;;;;;21.00;8.80;;;16.00;99.90;;;;;;5074666;28;20048;-78
2022/07/04 05:20:39;;;;;;;16.55;7.82;;;16.10;99.90;;;;;;5073201;28;20056;-78
2022/07/04 05:23:05;;;;;;;14.45;7.63;;;16.30;99.90;;;;;;5073172;28;20075;-78
2022/07/04 05:25:32;;;;;;;18.08;6.95;;;16.40;99.90;;;;;;5074756;28;20045;-78
2022/07/04 05:27:58;;;;;;;15.13;7.20;;;16.40;99.90;;;;;;5074368;28;20380;-78
2022/07/04 05:30:23;;;;;;;18.58;7.50;;;16.40;99.90;;;;;;5074322;28;20063;-78
2022/07/04 05:32:49;;;;;;;17.30;7.68;;;16.40;99.90;;;;;;5074274;28;20044;-78
2022/07/04 05:35:15;;;;;;;18.02;7.47;;;16.30;99.90;;;;;;5074161;28;20047;-78
2022/07/04 05:37:40;;;;;;;17.75;7.40;;;16.30;99.90;;;;;;5074380;28;20383;-78
2022/07/04 05:40:07;;;;;;;16.20;6.97;;;16.30;99.90;;;;;;5074171;28;20036;-78
2022/07/04 05:42:34;;;;;;;15.18;7.40;;;16.30;99.90;;;;;;5074316;28;20120;-78
2022/07/04 05:45:00;;;;;;;13.35;7.38;;;16.30;99.90;;;;;;5074293;28;20039;-78
2022/07/04 05:47:26;;;;;;;15.93;7.50;;;16.50;99.90;;;;;;5074214;28;20429;-78
2022/07/04 05:49:52;;;;;;;19.25;7.55;;;16.60;99.90;;;;;;5073862;28;20395;-78
2022/07/04 05:52:18;;;;;;;18.00;6.57;;;16.90;99.90;;;;;;5073889;28;20048;-78
2022/07/04 05:54:43;;;;;;;12.05;6.57;;;17.00;99.90;;;;;;5072692;28;20094;-78
2022/07/04 05:57:09;;;;;;;16.35;6.32;;;17.10;99.90;;;;;;5074011;28;20048;-77
2022/07/04 05:59:36;;;;;;;18.98;6.57;;;17.20;99.90;;;;;;5073840;28;20040;-77
2022/07/04 06:02:02;;;;;;;12.80;6.10;;;17.40;99.90;;;;;;5072534;28;20119;-77
2022/07/04 06:04:27;;;;;;;13.10;6.15;;;17.50;99.90;;;;;;5075744;28;20139;-77
2022/07/04 06:06:53;;;;;;;14.60;5.75;;;17.70;99.90;;;;;;5073662;28;20048;-77
2022/07/04 06:09:19;;;;;;;10.05;6.00;;;17.90;99.90;;;;;;5072745;28;20098;-77
2022/07/04 06:11:45;;;;;;;12.95;6.38;;;18.10;99.90;;;;;;5073887;28;20056;-77
2022/07/04 06:14:10;;;;;;;10.35;5.47;;;18.30;99.90;;;;;;5073602;28;20040;-77
2022/07/04 06:16:36;;;;;;;14.13;5.97;;;18.30;99.90;;;;;;5072291;28;20041;-78
2022/07/04 06:19:02;;;;;;;15.57;5.97;;;18.50;99.90;;;;;;5073497;28;20141;-77
2022/07/04 06:21:27;;;;;;;14.18;5.93;;;18.40;99.90;;;;;;5073420;28;20056;-77
2022/07/04 06:23:53;;;;;;;11.90;4.80;;;18.50;99.90;;;;;;5073492;28;20055;-77
2022/07/04 06:26:19;;;;;;;10.90;5.22;;;18.70;99.90;;;;;;5073671;28;20090;-77
2022/07/04 06:28:44;;;;;;;10.98;5.15;;;18.80;99.90;;;;;;5072353;28;20052;-76
2022/07/04 06:31:13;;;;;;;10.80;4.95;;;18.80;99.90;;;;;;5073068;28;20045;-77
2022/07/04 06:36:23;;;;;;;11.45;4.53;;;18.70;99.90;;;;;;5073584;28;20051;-77
2022/07/04 06:38:49;;;;;;;11.60;4.50;;;18.70;99.90;;;;;;5073660;28;20044;-77
2022/07/04 06:41:15;;;;;;;12.30;5.97;;;18.80;99.90;;;;;;5073186;28;20041;-77
2022/07/04 06:43:40;;;;;;;11.05;5.22;;;18.80;99.90;;;;;;5073473;28;20037;-77
2022/07/04 06:46:06;;;;;;;12.82;5.10;;;18.90;99.90;;;;;;5073527;28;20076;-77
2022/07/04 06:48:32;;;;;;;11.68;4.90;;;18.90;99.90;;;;;;5073480;28;20546;-77
2022/07/04 06:50:57;;;;;;;10.68;4.45;;;18.90;99.90;;;;;;5073263;28;20049;-75
2022/07/04 06:53:23;;;;;;;10.50;4.60;;;18.90;99.90;;;;;;5073472;28;20474;-77
2022/07/04 06:55:49;;;;;;;9.45;3.95;;;18.80;99.90;;;;;;5075680;28;20053;-77
2022/07/04 06:58:14;;;;;;;7.72;3.88;;;18.80;99.90;;;;;;5081445;28;20028;-77
2022/07/04 07:00:41;;;;;;;9.75;4.05;;;18.90;99.90;;;;;;5073030;28;20445;-77
2022/07/04 07:03:07;;;;;;;9.95;3.50;;;18.90;99.90;;;;;;5073174;28;20044;-76
2022/07/04 07:05:36;;;;;;;9.02;3.88;;;18.90;99.90;;;;;;5071916;28;20048;-76
2022/07/04 07:08:05;;;;;;;9.57;3.28;;;19.00;99.90;;;;;;5072998;28;20094;-77
2022/07/04 07:10:35;;;;;;;7.13;3.10;;;19.10;99.90;;;;;;5072872;28;20076;-76
2022/07/04 07:13:02;;;;;;;6.47;2.78;;;19.20;99.90;;;;;;5072775;28;20056;-76
2022/07/04 07:15:28;;;;;;;6.45;2.70;;;19.40;99.90;;;;;;5072699;28;20391;-77
2022/07/04 07:17:53;;;;;;;7.18;2.90;;;19.50;99.90;;;;;;5072764;28;20048;-77
2022/07/04 07:20:19;;;;;;;6.60;3.05;;;19.80;99.90;;;;;;5071395;28;20056;-77
2022/07/04 07:22:45;;;;;;;8.27;2.80;;;19.90;99.90;;;;;;5072977;28;20041;-77
2022/07/04 07:25:11;;;;;;;7.22;2.70;;;19.90;99.90;;;;;;5073110;28;20048;-76
2022/07/04 07:27:37;;;;;;;6.07;2.78;;;19.90;99.90;;;;;;5072681;28;20041;-76
2022/07/04 07:30:04;;;;;;;7.80;2.63;;;19.70;99.90;;;;;;5072945;28;20036;-77
2022/07/04 07:32:30;;;;;;;8.13;2.67;;;19.60;99.90;;;;;;5072965;28;20063;-76
2022/07/04 07:34:56;;;;;;;6.70;2.42;;;19.60;99.90;;;;;;5072941;28;20045;-77
2022/07/04 07:37:22;;;;;;;3.38;2.30;;;19.60;99.90;;;;;;5072661;28;20127;-78
2022/07/04 07:39:48;;;;;;;5.95;2.40;;;19.70;99.90;;;;;;5072708;28;20045;-76
2022/07/04 07:42:14;;;;;;;7.47;2.30;;;19.60;99.90;;;;;;5072550;28;20076;-77
2022/07/04 07:44:40;;;;;;;8.88;2.42;;;19.50;99.90;;;;;;5077051;28;20083;-77
2022/07/04 07:47:06;;;;;;;8.00;2.30;;;19.60;99.90;;;;;;5083944;28;20048;-76
2022/07/04 07:49:31;;;;;;;5.13;2.00;;;19.70;99.90;;;;;;5076143;28;20399;-77
2022/07/04 07:51:57;;;;;;;9.80;2.33;;;20.10;99.90;;;;;;5076231;28;20040;-77
2022/07/04 07:54:23;;;;;;;8.80;2.22;;;20.50;99.90;;;;;;5076172;28;20124;-77
2022/07/04 07:56:48;;;;;;;4.07;1.85;;;20.80;99.90;;;;;;5075711;28;20113;-77
2022/07/04 07:59:14;;;;;;;5.07;1.75;;;20.90;99.90;;;;;;5090514;28;20475;-77
2022/07/04 08:01:39;;;;;;;6.50;1.75;;;21.10;99.90;;;;;;5094318;28;20126;-78
2022/07/04 08:06:49;;;;;;;3.88;1.15;;;20.90;99.90;;;;;;5094736;28;20050;-78
2022/07/04 08:09:15;;;;;;;6.47;1.40;;;21.00;99.90;;;;;;5094656;28;20048;-79
2022/07/04 08:11:41;;;;;;;4.43;1.50;;;21.10;99.90;;;;;;5094792;28;20051;-78
2022/07/04 08:14:07;;;;;;;4.13;1.42;;;20.70;99.90;;;;;;5095515;28;20064;-78
2022/07/04 08:16:33;;;;;;;2.53;0.90;;;20.50;99.90;;;;;;5092501;28;20075;-78
2022/07/04 08:18:59;;;;;;;3.17;1.42;;;20.30;99.90;;;;;;5075453;28;20045;-78
2022/07/04 08:21:25;;;;;;;7.60;1.40;;;20.10;99.90;;;;;;5075412;28;20135;-79
2022/07/04 08:23:51;;;;;;;2.72;1.00;;;20.00;99.90;;;;;;5075603;28;20178;-78
2022/07/04 08:26:16;;;;;;;7.03;1.23;;;20.00;99.90;;;;;;5084421;28;20044;-78
2022/07/04 08:28:42;;;;;;;3.20;1.30;;;19.80;99.90;;;;;;5076251;28;20036;-79
2022/07/04 08:31:08;;;;;;;3.28;1.48;;;19.60;99.90;;;;;;5075393;28;20044;-78
2022/07/04 08:33:33;;;;;;;4.85;1.50;;;19.60;99.90;;;;;;5075320;28;20410;-78
2022/07/04 08:35:59;;;;;;;7.18;1.40;;;19.60;99.90;;;;;;5075410;28;20044;-78
2022/07/04 08:38:25;;;;;;;5.50;1.40;;;19.80;99.90;;;;;;5075497;28;20459;-79
2022/07/04 08:40:56;;;;;;;4.03;1.23;;;20.20;99.90;;;;;;5073584;28;20061;-78
2022/07/04 08:43:24;;;;;;;3.78;1.48;;;20.30;99.90;;;;;;5090744;28;20081;-79
2022/07/04 08:45:56;;;;;;;6.50;1.40;;;20.10;99.90;;;;;;5089631;28;20048;-79
2022/07/04 08:48:28;;;;;;;3.72;1.80;;;20.00;99.90;;;;;;5094737;28;20115;-79
2022/07/04 08:51:06;;;;;;;6.60;1.75;;;20.00;99.90;;;;;;5093639;28;20123;-78
2022/07/04 08:53:36;;;;;;;4.40;1.60;;;19.70;99.90;;;;;;5093026;28;20058;-78
2022/07/04 08:58:48;;;;;;;6.03;1.80;;;19.60;99.90;;;;;;5075993;28;20062;-78
2022/07/04 09:01:14;;;;;;;7.05;1.98;;;19.60;99.90;;;;;;5074529;28;20487;-77
2022/07/04 09:03:42;;;;;;;5.90;1.95;;;19.50;99.90;;;;;;5073848;28;20178;-78
2022/07/04 09:06:09;;;;;;;8.38;2.03;;;19.70;99.90;;;;;;5073200;28;20478;-78
2022/07/04 09:08:35;;;;;;;5.68;2.65;;;20.00;99.90;;;;;;5072562;28;20479;-78
2022/07/04 09:11:01;;;;;;;6.20;1.92;;;20.10;99.90;;;;;;5073730;28;20044;-78
2022/07/04 09:13:27;;;;;;;7.07;2.00;;;20.20;99.90;;;;;;5074275;28;20094;-78
2022/07/04 09:15:52;;;;;;;5.20;1.83;;;20.60;99.90;;;;;;5074734;28;20040;-78
2022/07/04 09:18:33;;;;;;;5.50;2.20;;;20.70;99.90;;;;;;5074577;28;20036;-78
2022/07/04 09:21:01;;;;;;;5.47;2.20;;;20.70;99.90;;;;;;5074106;28;20072;-78
2022/07/04 09:23:29;;;;;;;4.43;2.00;;;20.50;99.90;;;;;;5074253;28;20398;-78
2022/07/04 09:26:15;;;;;;;5.68;2.30;;;20.20;99.90;;;;;;5074162;28;20051;-78
2022/07/04 09:28:51;;;;;;;5.10;2.40;;;20.40;99.90;;;;;;5073965;28;20125;-78
2022/07/04 09:31:20;;;;;;;7.13;2.03;;;20.70;99.90;;;;;;5073641;28;20048;-78
2022/07/04 09:33:51;;;;;;;5.80;2.15;;;21.00;99.90;;;;;;5074051;28;20487;-78
2022/07/04 09:36:20;;;;;;;3.88;2.00;;;21.20;99.90;;;;;;5074274;28;20040;-78
2022/07/04 09:39:03;;;;;;;6.03;2.10;;;21.40;99.90;;;;;;5074025;28;20141;-78
2022/07/04 09:41:35;;;;;;;5.22;1.75;;;21.60;99.90;;;;;;5074074;28;20051;-78
2022/07/04 09:44:03;;;;;;;6.10;2.20;;;21.90;99.90;;;;;;5074293;28;20406;-78
2022/07/04 09:46:28;;;;;;;5.43;2.72;;;21.90;99.90;;;;;;5073880;28;20052;-78
2022/07/04 09:48:55;;;;;;;4.70;1.90;;;22.00;99.90;;;;;;5074031;28;20037;-78
2022/07/04 09:51:39;;;;;;;5.22;1.83;;;22.10;99.90;;;;;;5072648;28;20059;-78
2022/07/04 09:54:27;;;;;;;7.95;2.83;;;21.90;99.90;;;;;;5073997;28;20094;-78
2022/07/04 09:56:58;;;;;;;6.35;2.13;;;21.70;99.90;;;;;;5073711;28;20040;-78
2022/07/04 09:59:27;;;;;;;5.82;1.92;;;21.40;99.90;;;;;;5073871;28;20040;-78
2022/07/04 10:02:09;;;;;;;6.15;2.13;;;21.20;99.90;;;;;;5073374;28;20429;-78
2022/07/04 10:04:50;;;;;;;7.85;2.22;;;21.20;99.90;;;;;;5073735;28;20068;-78
2022/07/04 10:07:30;;;;;;;7.05;2.20;;;21.10;99.90;;;;;;5073269;28;20076;-78
2022/07/04 10:09:56;;;;;;;4.90;2.10;;;21.40;99.90;;;;;;5073856;28;20044;-78
2022/07/04 10:12:28;;;;;;;5.50;1.90;;;21.90;99.90;;;;;;5072438;28;20395;-78
2022/07/04 10:14:55;;;;;;;;;;;22.00;99.90;;;;;;5073947;28;20055;-76
2022/07/04 10:17:21;;;;;;;3.40;1.67;;;21.80;99.90;;;;;;5073691;28;19959;-76
2022/07/04 10:19:47;;;;;;;6.95;1.85;;;22.00;99.90;;;;;;5073086;28;20048;-76
2022/07/04 10:22:13;;;;;;;6.90;1.90;;;21.80;99.90;;;;;;5073406;28;20055;-76
2022/07/04 10:24:39;;;;;;;6.55;2.45;;;22.00;99.90;;;;;;5073357;28;20127;-75
2022/07/04 10:27:05;;;;;;;9.32;2.67;;;22.00;99.90;;;;;;5073203;28;20130;-76
2022/07/04 10:29:31;;;;;;;6.20;2.00;;;22.00;99.90;;;;;;5072257;28;20052;-76
2022/07/04 10:31:57;;;;;;;6.90;2.22;;;21.90;99.90;;;;;;5071965;28;20056;-75
2022/07/04 10:34:23;;;;;;;9.50;2.20;;;21.80;99.90;;;;;;5073430;28;20047;-76
2022/07/04 10:36:52;;;;;;;4.47;2.00;;;21.50;99.90;;;;;;5073594;28;20041;-75
2022/07/04 10:39:24;;;;;;;10.00;3.78;;;21.50;99.90;;;;;;5073172;28;20090;-76
2022/07/04 10:42:01;;;;;;;8.93;2.33;;;21.70;99.90;;;;;;5073321;28;20054;-76
2022/07/04 10:44:26;;;;;;;4.82;1.95;;;21.80;99.90;;;;;;5073297;28;20052;-76
2022/07/04 10:46:56;;;;;;;13.32;2.10;;;22.10;99.90;;;;;;5073394;28;20049;-76
2022/07/04 10:49:25;;;;;;;5.75;1.77;;;22.20;99.90;;;;;;5073048;28;20490;-76
2022/07/04 10:52:12;;;;;;;5.50;1.95;;;22.50;99.90;;;;;;5073008;28;20594;-76
2022/07/04 10:54:40;;;;;;;6.80;2.10;;;22.60;99.90;;;;;;5073344;28;20047;-77
2022/07/04 10:57:26;;;;;;;6.75;2.28;;;22.80;99.90;;;;;;5073282;28;20094;-76
2022/07/04 10:59:52;;;;;;;8.13;2.28;;;22.80;99.90;;;;;;5071634;28;20055;-76
2022/07/04 11:02:17;;;;;;;6.90;1.95;;;22.90;99.90;;;;;;5073162;28;20045;-75
2022/07/04 11:04:56;;;;;;;6.25;1.73;;;22.80;99.90;;;;;;5072909;28;20051;-76
2022/07/04 11:07:37;;;;;;;5.82;1.70;;;22.70;99.90;;;;;;5076775;28;20041;-75
2022/07/04 11:12:53;;;;;;;6.37;2.23;;;23.00;99.90;;;;;;5073058;28;20495;-77
2022/07/04 11:15:28;;;;;;;4.22;1.50;;;22.70;99.90;;;;;;5072809;28;20461;-77
2022/07/04 11:17:57;;;;;;;5.35;2.00;;;22.50;99.90;;;;;;5073020;28;20114;-77
2022/07/04 11:20:25;;;;;;;5.18;1.80;;;22.40;99.90;;;;;;5076088;28;20125;-76
2022/07/04 11:22:50;;;;;;;8.85;2.13;;;22.60;99.90;;;;;;5076513;28;20467;-76
2022/07/04 11:25:16;;;;;;;6.43;1.98;;;22.50;99.90;;;;;;5075490;28;20127;-76
2022/07/04 11:27:42;;;;;;;3.70;1.67;;;22.50;99.90;;;;;;5076749;28;20120;-76
2022/07/04 11:30:10;;;;;;;5.18;1.90;;;22.50;99.90;;;;;;5076344;28;20491;-77
2022/07/04 11:32:38;;;;;;;5.03;1.80;;;22.70;99.90;;;;;;5076265;28;20466;-77
2022/07/04 11:35:04;;;;;;;10.38;1.77;;;23.00;99.90;;;;;;5075323;28;20072;-76
2022/07/04 11:37:30;;;;;;;6.45;1.35;;;22.90;99.90;;;;;;5080627;28;20040;-77
2022/07/04 11:45:51;;;;;;;4.47;1.17;;;22.70;99.90;;;;;;5076431;28;20067;-77
2022/07/04 11:48:24;;;;;;;2.70;1.10;;;22.70;99.90;;;;;;5086653;28;20127;-77
2022/07/04 11:50:50;;;;;;;7.88;1.52;;;22.80;99.90;;;;;;5076090;28;20123;-79
2022/07/04 11:53:20;;;;;;;2.28;1.02;;;22.90;99.90;;;;;;5076337;28;20115;-77
2022/07/04 11:55:57;;;;;;;2.92;1.08;;;22.60;99.90;;;;;;5075833;28;20483;-76
2022/07/04 11:58:37;;;;;;;4.68;1.13;;;22.60;99.90;;;;;;5076231;28;20120;-78
2022/07/04 12:01:03;;;;;;;3.05;1.00;;;22.60;99.90;;;;;;5075765;28;20473;-78
2022/07/04 12:03:29;;;;;;;5.75;1.17;;;22.70;99.90;;;;;;5076069;28;20523;-78
2022/07/04 12:06:02;;;;;;;3.13;1.13;;;22.70;99.90;;;;;;5075957;28;20036;-78
2022/07/04 12:08:28;;;;;;;6.03;1.77;;;22.80;99.90;;;;;;5078179;28;20493;-78
2022/07/04 12:10:53;;;;;;;5.80;1.58;;;22.70;99.90;;;;;;5078343;28;20454;-77
2022/07/04 12:13:20;;;;;;;3.88;1.27;;;22.50;99.90;;;;;;5095712;28;20044;-78
2022/07/04 12:15:52;;;;;;;4.90;1.15;;;22.40;99.90;;;;;;5096157;28;20054;-78
2022/07/04 12:18:31;;;;;;;5.93;1.30;;;22.30;99.90;;;;;;5095533;28;20048;-77
2022/07/04 12:21:12;;;;;;;3.70;1.10;;;22.50;99.90;;;;;;5079781;28;20064;-78
2022/07/04 12:23:39;;;;;;;3.25;1.40;;;22.50;99.90;;;;;;5086051;28;20062;-78
2022/07/04 12:26:05;;;;;;;3.67;1.30;;;22.50;99.90;;;;;;5095853;28;20035;-77
2022/07/04 12:28:37;;;;;;;4.75;1.90;;;22.70;99.90;;;;;;5095819;28;20036;-77
2022/07/04 12:31:04;;;;;;;5.78;1.55;;;22.40;99.90;;;;;;5095235;28;20048;-78
2022/07/04 12:33:30;;;;;;;9.18;1.98;;;22.50;99.90;;;;;;5095477;28;20051;-79
2022/07/04 12:36:03;;;;;;;12.85;2.13;;;22.70;99.90;;;;;;5095692;28;20425;-78
2022/07/04 12:38:28;;;;;;;6.20;1.63;;;22.50;99.90;;;;;;5089081;28;20043;-78
2022/07/04 12:40:54;;;;;;;6.43;1.83;;;22.60;99.90;;;;;;5076020;28;20048;-79
2022/07/04 12:43:21;;;;;;;6.57;1.70;;;22.60;99.90;;;;;;5073737;28;20048;-79
2022/07/04 12:45:49;;;;;;;5.10;1.40;;;22.60;99.90;;;;;;5073731;28;20470;-79
2022/07/04 12:48:21;;;;;;;4.47;1.48;;;22.20;99.90;;;;;;5083566;28;20101;-79
2022/07/04 12:50:47;;;;;;;3.45;1.50;;;22.20;99.90;;;;;;5076517;28;20043;-77
2022/07/04 12:53:13;;;;;;;2.85;1.25;;;22.10;99.90;;;;;;5075072;28;20079;-77
2022/07/04 12:55:44;;;;;;;4.05;1.10;;;22.00;99.90;;;;;;5074697;28;20068;-80
2022/07/04 12:58:10;;;;;;;5.65;1.13;;;22.10;99.90;;;;;;5074742;28;20052;-79
2022/07/04 13:00:36;;;;;;;2.67;0.80;;;22.10;99.90;;;;;;5074979;28;20138;-79
2022/07/04 13:03:03;;;;;;;5.05;1.00;;;22.10;99.90;;;;;;5074659;28;20080;-79